Hovedside
METAR-TAF:

METAR-TAF

Lufthavner :

Šiauliai, Litauen

breddegrad: 55-53-38N, lengdegrad: 023-23-42E, høyde over havet: 135 m

Gjeldene værobservasjon

Denne rapporten ble laget for 34 minutter siden, klokken 09:20 UTC
Vind 6 kt fra Nordvest, skiftende mellom Vest-nordvest og Nord
Temperatur 20°C
Luftfuktighet 56%
Trykk 1028 hPa
Sikt 10 km eller mer
Spredte skyer i en høyde av 3300 ft

METAR: EYSA 090920Z 32006KT 290V010 9999 SCT033 20/11 Q1028 NOSIG

Tid: 12:54 (09:54 UTC)

Varsel

Denne rapporten ble laget for 1 time og 53 minutter siden, klokken 08:01 UTC
Varsel gyldig fra 09. klokken 09 UTC til 09. klokken 18 UTC
Vind 5 kt fra skiftende retning
Sikt: 9000 m
Brutte skyer i en høyde av 3000 ft
Midlertidig
fra 09. klokken 10 UTC til 09. klokken 18 UTC
Vind 15 kt fra skiftende retning
Brutte skyer i en høyde av 2500 ft, Bygeskyer.

TAF: EYSA 090801Z 0909/0918 VRB05KT 9000 BKN030 TEMPO 0910/0918 VRB15KT BKN025CB

Værobservasjoner og værvarsel for over 4000 flyplasser (METAR- og TAF-rapporter).

Tilgjengelige stasjoner er representert av de røde og gule prikkene på kartet.

Hold musepekeren over prikken for å se navnet på stasjonen.

Klikk så for å se værobservasjoner og -varsler.

For å forandre kartet kan du klikke på den grønne knappen med svart kryss for å zoome inn, på den grønne knappen med strek for å zoome ut, eller på de grønne pilene for å se tilstøtende kart.


METAR-TAF: